<?xml version='1.0' encoding='UTF-8'?><gpx version="1.1" creator="JPX - https://github.com/jenetics/jpx" xmlns="http://www.topografix.com/GPX/1/1"><trk><trkseg><trkpt lat="45.1504115" lon="7.9361672"><ele>202.0</ele><time>2026-04-12T06:43:47.891Z</time></trkpt><trkpt lat="45.1509646" lon="7.9362387"><ele>209.0</ele><time>2026-04-12T06:43:50.702Z</time></trkpt><trkpt lat="45.1519167" lon="7.9363765"><ele>198.0</ele><time>2026-04-12T06:43:56.282Z</time></trkpt><trkpt lat="45.1505892" lon="7.9363915"><ele>189.0</ele><time>2026-04-12T06:44:07.47Z</time></trkpt><trkpt lat="45.1479229" lon="7.9349186"><ele>196.0</ele><time>2026-04-12T06:44:42.06Z</time></trkpt><trkpt lat="45.1388087" lon="7.9405473"><ele>202.0</ele><time>2026-04-12T06:45:50.174Z</time></trkpt><trkpt lat="45.1330611" lon="7.9414718"><ele>202.0</ele><time>2026-04-12T06:46:08.542Z</time></trkpt><trkpt lat="45.1326783" lon="7.9411892"><ele>202.0</ele><time>2026-04-12T06:46:32.209Z</time></trkpt><trkpt lat="45.1320051" lon="7.9415447"><ele>205.0</ele><time>2026-04-12T06:46:38.646Z</time></trkpt><trkpt lat="45.1312177" lon="7.9419093"><ele>206.0</ele><time>2026-04-12T06:46:44.846Z</time></trkpt><trkpt lat="45.1304345" lon="7.9423818"><ele>208.0</ele><time>2026-04-12T06:46:50.941Z</time></trkpt><trkpt lat="45.1298349" lon="7.942792"><ele>208.0</ele><time>2026-04-12T06:46:57.057Z</time></trkpt><trkpt lat="45.1296097" lon="7.9426699"><ele>208.0</ele><time>2026-04-12T06:47:03.271Z</time></trkpt><trkpt lat="45.1296522" lon="7.9427445"><ele>208.0</ele><time>2026-04-12T06:52:53.812Z</time></trkpt><trkpt lat="45.1296345" lon="7.9426539"><ele>208.0</ele><time>2026-04-12T07:00:32.813Z</time></trkpt><trkpt lat="45.1296409" lon="7.942565"><ele>208.0</ele><time>2026-04-12T07:00:39.814Z</time></trkpt><trkpt lat="45.1295788" lon="7.9425837"><ele>208.0</ele><time>2026-04-12T07:00:44.814Z</time></trkpt><trkpt lat="45.1294731" lon="7.9427841"><ele>208.0</ele><time>2026-04-12T07:03:58.888Z</time></trkpt><trkpt lat="45.1257547" lon="7.9378693"><ele>291.0</ele><time>2026-04-12T07:05:06.254Z</time></trkpt><trkpt lat="45.1231118" lon="7.9314335"><ele>316.0</ele><time>2026-04-12T07:06:08.654Z</time></trkpt><trkpt lat="45.1084748" lon="7.9488928"><ele>350.0</ele><time>2026-04-12T07:20:34.379Z</time></trkpt><trkpt lat="45.080636" lon="8.0116102"><ele>340.0</ele><time>2026-04-12T08:02:10.374Z</time></trkpt><trkpt lat="45.0588688" lon="8.004501"><ele>329.0</ele><time>2026-04-12T08:06:09.836Z</time></trkpt><trkpt lat="45.0573799" lon="8.0057187"><ele>254.0</ele><time>2026-04-12T08:07:49.956Z</time></trkpt><trkpt lat="45.0451184" lon="8.0224"><ele>254.0</ele><time>2026-04-12T08:23:14.827Z</time></trkpt><trkpt lat="45.0451785" lon="8.0223524"><ele>254.0</ele><time>2026-04-12T08:25:54.842Z</time></trkpt><trkpt lat="45.0376605" lon="8.0165986"><ele>218.0</ele><time>2026-04-12T08:39:25.109Z</time></trkpt><trkpt lat="45.0373687" lon="8.0157462"><ele>211.0</ele><time>2026-04-12T08:39:31.665Z</time></trkpt><trkpt lat="45.0186161" lon="8.0208383"><ele>249.0</ele><time>2026-04-12T08:53:11.83Z</time></trkpt><trkpt lat="44.9952268" lon="8.0354476"><ele>249.0</ele><time>2026-04-12T09:06:35.775Z</time></trkpt></trkseg><trkseg><trkpt lat="44.9891675" lon="8.0257265"><ele>239.33333333333334</ele><time>2026-04-12T11:06:27.175Z</time></trkpt><trkpt lat="44.9891443" lon="8.0258277"><ele>239.66666666666669</ele><time>2026-04-12T11:07:00.1Z</time></trkpt><trkpt lat="44.98898" lon="8.0261829"><ele>240.0</ele><time>2026-04-12T11:07:07.089Z</time></trkpt><trkpt lat="44.9890536" lon="8.0259446"><ele>240.0</ele><time>2026-04-12T11:07:26.179Z</time></trkpt><trkpt lat="44.9891636" lon="8.0256884"><ele>240.0</ele><time>2026-04-12T11:07:31.862Z</time></trkpt><trkpt lat="44.9889653" lon="8.025943"><ele>239.8</ele><time>2026-04-12T11:07:51.923Z</time></trkpt><trkpt lat="44.9890088" lon="8.0256272"><ele>239.6</ele><time>2026-04-12T11:11:58.202Z</time></trkpt><trkpt lat="44.9889385" lon="8.0256459"><ele>239.39999999999998</ele><time>2026-04-12T11:12:03.846Z</time></trkpt><trkpt lat="44.9889815" lon="8.0255705"><ele>239.2</ele><time>2026-04-12T11:12:10.846Z</time></trkpt><trkpt lat="44.9890392" lon="8.0255286"><ele>239.0</ele><time>2026-04-12T11:12:21.721Z</time></trkpt><trkpt lat="44.9890228" lon="8.0253986"><ele>226.0</ele><time>2026-04-12T11:13:01.758Z</time></trkpt><trkpt lat="45.0579045" lon="8.0397554"><ele>378.0</ele><time>2026-04-12T12:00:55.852Z</time></trkpt><trkpt lat="45.0674899" lon="8.0205468"><ele>272.0</ele><time>2026-04-12T12:15:43.232Z</time></trkpt><trkpt lat="45.0899676" lon="8.0143539"><ele>427.0</ele><time>2026-04-12T12:21:07.88Z</time></trkpt><trkpt lat="45.1041014" lon="8.0216262"><ele>206.0</ele><time>2026-04-12T12:25:55.76Z</time></trkpt><trkpt lat="45.1290516" lon="7.9456815"><ele>208.0</ele><time>2026-04-12T12:46:58.596Z</time></trkpt><trkpt lat="45.129433" lon="7.9430526"><ele>208.0</ele><time>2026-04-12T12:47:18.165Z</time></trkpt><trkpt lat="45.1295449" lon="7.9426289"><ele>208.0</ele><time>2026-04-12T12:48:05.483Z</time></trkpt><trkpt lat="45.1296662" lon="7.9427215"><ele>207.99999999999997</ele><time>2026-04-12T12:49:39.032Z</time></trkpt><trkpt lat="45.1296136" lon="7.9426535"><ele>208.0</ele><time>2026-04-12T12:51:10.442Z</time></trkpt><trkpt lat="45.1296361" lon="7.9425289"><ele>208.0</ele><time>2026-04-12T12:53:32.899Z</time></trkpt><trkpt lat="45.1296424" lon="7.9426379"><ele>208.0</ele><time>2026-04-12T12:53:46.246Z</time></trkpt><trkpt lat="45.1296376" lon="7.9425205"><ele>207.99999999999997</ele><time>2026-04-12T12:54:42.7Z</time></trkpt><trkpt lat="45.1295831" lon="7.9426365"><ele>208.0</ele><time>2026-04-12T12:56:22.315Z</time></trkpt><trkpt lat="45.1295948" lon="7.9428104"><ele>208.0</ele><time>2026-04-12T13:05:44.641Z</time></trkpt><trkpt lat="45.129552" lon="7.942882"><ele>208.0</ele><time>2026-04-12T13:09:40.904Z</time></trkpt><trkpt lat="45.129594" lon="7.9426196"><ele>208.0</ele><time>2026-04-12T13:10:57.443Z</time></trkpt><trkpt lat="45.1295623" lon="7.9424811"><ele>208.0</ele><time>2026-04-12T13:12:53.616Z</time></trkpt><trkpt lat="45.1296715" lon="7.9426945"><ele>208.5</ele><time>2026-04-12T13:15:20.888Z</time></trkpt><trkpt lat="45.1295783" lon="7.9425192"><ele>209.0</ele><time>2026-04-12T13:17:40.534Z</time></trkpt><trkpt lat="45.1298087" lon="7.9419829"><ele>205.0</ele><time>2026-04-12T13:19:19.031Z</time></trkpt><trkpt lat="45.131276" lon="7.9419807"><ele>205.0</ele><time>2026-04-12T13:19:40.846Z</time></trkpt><trkpt lat="45.1332091" lon="7.940777"><ele>203.66666666666666</ele><time>2026-04-12T13:20:42.563Z</time></trkpt><trkpt lat="45.1332991" lon="7.9407372"><ele>202.33333333333331</ele><time>2026-04-12T13:20:51.069Z</time></trkpt><trkpt lat="45.1333011" lon="7.9410681"><ele>201.0</ele><time>2026-04-12T13:20:57.274Z</time></trkpt><trkpt lat="45.1333644" lon="7.9406335"><ele>201.0</ele><time>2026-04-12T13:21:03.567Z</time></trkpt><trkpt lat="45.133278" lon="7.9407788"><ele>201.0</ele><time>2026-04-12T13:22:03.511Z</time></trkpt><trkpt lat="45.1332236" lon="7.9409126"><ele>201.0</ele><time>2026-04-12T13:22:09.788Z</time></trkpt><trkpt lat="45.1333912" lon="7.9408338"><ele>201.0</ele><time>2026-04-12T13:22:30.54Z</time></trkpt><trkpt lat="45.1333843" lon="7.9404725"><ele>202.0</ele><time>2026-04-12T13:22:37.185Z</time></trkpt><trkpt lat="45.1330698" lon="7.9412945"><ele>200.0</ele><time>2026-04-12T13:22:56.971Z</time></trkpt><trkpt lat="45.1362589" lon="7.9431747"><ele>196.0</ele><time>2026-04-12T13:23:17.326Z</time></trkpt><trkpt lat="45.1366194" lon="7.9395585"><ele>202.0</ele><time>2026-04-12T13:23:29.076Z</time></trkpt><trkpt lat="45.1521925" lon="7.9368874"><ele>215.0</ele><time>2026-04-12T13:25:11.248Z</time></trkpt><trkpt lat="45.1499497" lon="7.9356566"><ele>215.0</ele><time>2026-04-12T13:26:18.466Z</time></trkpt><trkpt lat="45.1500418" lon="7.9359688"><ele>215.0</ele><time>2026-04-12T13:42:57.371Z</time></trkpt><trkpt lat="45.1499311" lon="7.9355737"><ele>215.0</ele><time>2026-04-12T13:47:01.85Z</time></trkpt><trkpt lat="45.1496936" lon="7.9354128"><ele>215.0</ele><time>2026-04-12T13:55:09.98Z</time></trkpt><trkpt lat="45.1497483" lon="7.9354807"><ele>215.0</ele><time>2026-04-12T13:55:11.868Z</time></trkpt><trkpt lat="45.1498089" lon="7.9355278"><ele>215.0</ele><time>2026-04-12T13:55:18.869Z</time></trkpt><trkpt lat="45.149885" lon="7.9355474"><ele>215.00000000000003</ele><time>2026-04-12T13:55:24.869Z</time></trkpt><trkpt lat="45.1499542" lon="7.935601"><ele>215.0</ele><time>2026-04-12T13:55:30.868Z</time></trkpt><trkpt lat="45.1500243" lon="7.935606"><ele>215.0</ele><time>2026-04-12T13:55:34.868Z</time></trkpt><trkpt lat="45.1500798" lon="7.9355588"><ele>215.0</ele><time>2026-04-12T13:55:39.868Z</time></trkpt><trkpt lat="45.150007" lon="7.9355636"><ele>215.00000000000003</ele><time>2026-04-12T13:55:50.869Z</time></trkpt><trkpt lat="45.1500071" lon="7.9356657"><ele>215.0</ele><time>2026-04-12T13:55:59.869Z</time></trkpt><trkpt lat="45.1499033" lon="7.9356189"><ele>215.0</ele><time>2026-04-12T13:57:16.545Z</time></trkpt><trkpt lat="45.1500107" lon="7.9357537"><ele>215.0</ele><time>2026-04-12T13:58:10.869Z</time></trkpt></trkseg></trk></gpx>